MDT,Max TemperatureF,Mean TemperatureF,Min TemperatureF,Max Dew PointF,MeanDew PointF,Min DewpointF,Max Humidity, Mean Humidity, Min Humidity, Max Sea Level PressureIn, Mean Sea Level PressureIn, Min Sea Level PressureIn, Max VisibilityMiles, Mean VisibilityMiles, Min VisibilityMiles, Max Wind SpeedMPH, Mean Wind SpeedMPH, Max Gust SpeedMPH,PrecipitationIn, CloudCover, Events, WindDirDegrees
2012-9-1,75,60,44,48,42,37,81,58,27,30.46,30.40,30.33,10,10,10,15,2,22,0.00,3,,82
2012-9-2,73,60,46,52,45,39,88,65,29,30.46,30.41,30.36,10,10,8,18,3,17,0.06,2,Thunderstorm,1
2012-9-3,77,62,46,52,41,30,87,56,21,30.48,30.41,30.34,10,10,9,15,3,24,0.00,0,,288
2012-9-4,78,58,37,37,32,27,75,41,18,30.48,30.39,30.31,10,10,10,17,3,24,0.00,1,,291
2012-9-5,77,57,37,32,24,16,70,35,12,30.45,30.37,30.29,10,10,10,21,3,29,0.00,0,,303
2012-9-6,80,56,33,36,26,19,65,36,14,30.44,30.34,30.25,10,10,10,21,3,31,0.00,1,,308
2012-9-7,73,62,51,46,40,30,82,52,23,30.47,30.39,30.31,10,10,10,16,5,25,0.00,5,Thunderstorm,322
2012-9-8,75,56,37,39,30,21,75,41,13,30.55,30.46,30.36,10,10,10,12,5,,0.00,0,,322
2012-9-9,75,58,41,39,32,19,76,40,13,30.53,30.42,30.30,10,10,10,10,4,,0.00,0,,341
2012-9-10,77,58,39,37,31,27,61,39,18,30.41,30.33,30.22,10,10,9,17,4,23,0.00,2,,344
2012-9-11,69,58,46,50,40,30,82,58,33,30.31,30.27,30.21,10,10,6,28,3,33,0.37,6,Thunderstorm,46
2012-9-12,60,54,48,50,46,43,88,78,59,30.46,30.33,30.27,10,10,9,13,3,,0.18,6,,41
2012-9-13,68,54,39,43,37,30,87,60,24,30.61,30.53,30.46,10,10,2,12,3,,0.00,1,,36
2012-9-14,71,54,37,39,31,23,87,48,16,30.65,30.55,30.43,10,10,3,13,5,,0.00,0,,18
2012-9-15,75,54,33,34,28,21,75,44,14,30.56,30.46,30.34,10,10,10,16,4,21,0.00,0,,292
2012-9-16,73,53,33,30,25,16,75,40,12,30.47,30.37,30.27,10,10,10,20,4,28,0.00,0,,277
2012-9-17,60,46,33,39,30,23,75,53,29,30.37,30.31,30.28,10,10,10,24,3,39,0.00,2,,11
2012-9-18,71,50,30,34,28,21,81,49,17,30.48,30.40,30.32,10,10,10,17,3,25,0.00,0,,262
2012-9-19,73,52,30,30,24,18,75,40,13,30.48,30.40,30.31,10,10,10,14,2,21,0.00,0,,268
2012-9-20,71,50,30,27,22,19,70,38,14,30.45,30.39,30.30,10,10,10,13,2,,0.00,0,,248
2012-9-21,75,54,32,27,22,18,65,35,11,30.48,30.38,30.29,10,10,10,10,2,,0.00,0,,327
2012-9-22,75,54,32,27,23,19,70,37,13,30.50,30.41,30.33,10,10,10,13,2,20,0.00,0,,268
2012-9-23,73,53,33,32,27,21,70,40,19,30.53,30.43,30.36,10,10,10,14,3,32,0.00,2,,289
2012-9-24,60,53,46,45,39,32,82,65,45,30.41,30.35,30.27,10,10,7,25,4,30,0.25,4,Thunderstorm,54
2012-9-25,57,48,39,43,40,34,87,77,41,30.29,30.23,30.16,10,10,7,18,3,29,0.10,5,Thunderstorm,18
2012-9-26,57,46,35,39,36,32,93,75,44,30.34,30.27,30.22,10,10,9,15,2,20,0.03,5,Thunderstorm,347
2012-9-27,62,50,37,39,36,30,87,66,31,30.38,30.35,30.30,10,10,10,14,4,17,0.00,5,,352
2012-9-28,66,49,32,37,31,25,87,59,21,30.41,30.34,30.23,10,10,8,8,2,,0.00,0,,355
2012-9-29,69,50,32,36,30,27,81,51,21,30.42,30.35,30.24,10,10,10,17,2,25,0.00,0,,300
2012-9-30,66,50,33,34,28,23,75,48,19,30.44,30.37,30.31,10,10,10,13,2,16,0.00,1,,323